createdAt,value
2019-03-31T00:00:08.381Z,64.14
2019-03-31T00:02:39.497Z,64.35
2019-03-31T00:05:09.942Z,64.63
2019-03-31T00:07:39.306Z,65.00
2019-03-31T00:10:08.919Z,65.36
2019-03-31T00:12:38.291Z,65.58
2019-03-31T00:15:09.097Z,65.80
2019-03-31T00:17:38.440Z,65.96
2019-03-31T00:20:08.116Z,66.00
2019-03-31T00:22:37.450Z,66.09
2019-03-31T00:25:06.980Z,66.29
2019-03-31T00:27:36.335Z,66.37
2019-03-31T00:30:06.948Z,66.36
2019-03-31T00:32:36.332Z,66.38
2019-03-31T00:35:05.740Z,66.47
2019-03-31T00:37:35.118Z,66.59
2019-03-31T00:40:06.320Z,66.76
2019-03-31T00:42:35.742Z,66.85
2019-03-31T00:45:07.347Z,66.95
2019-03-31T00:47:37.284Z,67.09
2019-03-31T00:50:07.773Z,67.09
2019-03-31T00:52:37.155Z,67.16
2019-03-31T00:55:06.732Z,67.33
2019-03-31T00:57:36.341Z,67.13
2019-03-31T01:00:09.521Z,66.92
2019-03-31T01:02:40.582Z,66.88
2019-03-31T01:05:10.261Z,66.71
2019-03-31T01:07:40.005Z,66.60
2019-03-31T01:10:10.026Z,66.47
2019-03-31T01:12:40.626Z,66.38
2019-03-31T01:15:13.279Z,66.51
2019-03-31T01:17:44.363Z,66.28
2019-03-31T01:20:13.758Z,66.22
2019-03-31T01:22:44.077Z,66.25
2019-03-31T01:25:15.352Z,66.13
2019-03-31T01:27:44.689Z,66.13
2019-03-31T01:30:16.135Z,66.10
2019-03-31T01:32:45.593Z,66.09
2019-03-31T01:35:15.187Z,66.01
2019-03-31T01:37:44.534Z,65.86
2019-03-31T01:40:14.059Z,65.85
2019-03-31T01:42:43.393Z,65.76
2019-03-31T01:45:12.957Z,65.58
2019-03-31T01:47:42.363Z,65.56
2019-03-31T01:50:14.539Z,65.66
2019-03-31T01:52:43.939Z,65.60
2019-03-31T01:55:13.512Z,65.68
2019-03-31T01:57:42.857Z,65.80
2019-03-31T02:00:14.575Z,65.77
2019-03-31T02:02:43.922Z,65.84
2019-03-31T02:05:13.291Z,65.83
2019-03-31T02:07:42.638Z,65.87
2019-03-31T02:10:12.050Z,65.94
2019-03-31T02:12:41.415Z,66.08
2019-03-31T02:15:11.686Z,66.03
2019-03-31T02:17:41.033Z,66.23
2019-03-31T02:20:10.834Z,65.99
2019-03-31T02:22:40.177Z,65.96
2019-03-31T02:25:09.583Z,65.88
2019-03-31T02:27:38.918Z,65.92
2019-03-31T02:30:08.599Z,66.02
2019-03-31T02:32:38.013Z,66.30
2019-03-31T02:35:08.103Z,66.32
2019-03-31T02:37:37.453Z,66.48
2019-03-31T02:40:07.219Z,66.33
2019-03-31T02:42:36.891Z,66.21
2019-03-31T02:45:09.749Z,66.14
2019-03-31T02:47:40.066Z,66.30
2019-03-31T02:50:09.853Z,66.45
2019-03-31T02:52:39.193Z,66.79
2019-03-31T02:55:08.541Z,66.96
2019-03-31T02:57:37.954Z,67.08
2019-03-31T03:00:07.919Z,67.30
2019-03-31T03:02:42.672Z,67.43
2019-03-31T03:05:19.493Z,67.57
2019-03-31T03:07:44.807Z,67.78
2019-03-31T03:10:14.286Z,67.84
2019-03-31T03:12:47.285Z,67.95
2019-03-31T03:15:27.313Z,68.04
2019-03-31T03:17:56.648Z,68.10
2019-03-31T03:20:25.993Z,68.19
2019-03-31T03:22:55.331Z,68.39
2019-03-31T03:25:24.669Z,68.19
2019-03-31T03:27:54.317Z,68.45
2019-03-31T03:30:23.784Z,68.43
2019-03-31T03:33:13.743Z,68.87
2019-03-31T03:35:24.347Z,68.62
2019-03-31T03:37:53.906Z,68.85
2019-03-31T03:40:23.537Z,68.81
2019-03-31T03:42:52.915Z,68.97
2019-03-31T03:45:22.394Z,69.43
2019-03-31T03:47:51.767Z,69.35
2019-03-31T03:50:21.140Z,69.37
2019-03-31T03:52:50.476Z,69.20
2019-03-31T03:55:19.810Z,69.42
2019-03-31T03:57:49.145Z,69.40
2019-03-31T04:00:18.494Z,69.45
2019-03-31T04:02:47.931Z,69.48
2019-03-31T04:05:17.277Z,69.85
2019-03-31T04:07:46.614Z,70.43
2019-03-31T04:10:36.424Z,70.09
2019-03-31T04:13:05.825Z,70.36
2019-03-31T04:15:35.429Z,70.12
2019-03-31T04:18:04.763Z,70.22
2019-03-31T04:20:34.113Z,70.11
2019-03-31T04:23:03.453Z,70.00
2019-03-31T04:25:33.056Z,70.10
2019-03-31T04:28:02.414Z,70.91
2019-03-31T04:30:31.757Z,70.54
2019-03-31T04:33:01.100Z,70.49
2019-03-31T04:35:30.450Z,70.53
2019-03-31T04:37:59.819Z,70.52
2019-03-31T04:40:29.253Z,70.60
2019-03-31T04:42:58.556Z,70.73
2019-03-31T04:45:27.908Z,70.90
2019-03-31T04:47:57.244Z,71.04
2019-03-31T04:50:26.601Z,71.35
2019-03-31T04:52:55.946Z,71.45
2019-03-31T04:55:25.274Z,71.42
2019-03-31T04:57:54.602Z,71.40
2019-03-31T05:00:23.947Z,71.37
2019-03-31T05:02:53.574Z,71.37
2019-03-31T05:05:22.901Z,71.34
2019-03-31T05:07:52.479Z,71.45
2019-03-31T05:10:22.089Z,71.43
2019-03-31T05:12:51.426Z,71.18
2019-03-31T05:15:20.821Z,70.59
2019-03-31T05:17:50.162Z,69.98
2019-03-31T05:20:19.495Z,69.49
2019-03-31T05:22:48.833Z,69.06
2019-03-31T05:25:18.417Z,68.83
2019-03-31T05:27:47.750Z,68.74
2019-03-31T05:30:17.257Z,68.59
2019-03-31T05:32:46.593Z,68.44
2019-03-31T05:35:15.931Z,68.59
2019-03-31T05:37:51.131Z,68.69
2019-03-31T05:40:16.302Z,68.22
2019-03-31T05:42:45.682Z,67.61
2019-03-31T05:45:15.071Z,67.26
2019-03-31T05:47:44.394Z,67.11
2019-03-31T05:50:13.743Z,66.80
2019-03-31T05:52:43.073Z,66.54
2019-03-31T05:55:12.449Z,65.99
2019-03-31T05:57:41.787Z,65.79
2019-03-31T06:00:11.269Z,65.91
2019-03-31T06:02:40.894Z,65.86
2019-03-31T06:05:10.307Z,65.89
2019-03-31T06:07:39.638Z,65.85
2019-03-31T06:10:09.159Z,65.80
2019-03-31T06:12:38.516Z,65.74
2019-03-31T06:15:08.098Z,65.71
2019-03-31T06:17:37.436Z,65.97
2019-03-31T06:20:07.111Z,66.20
2019-03-31T06:22:36.450Z,66.60
2019-03-31T06:25:06.615Z,68.00
2019-03-31T06:27:35.986Z,67.55
2019-03-31T06:30:06.749Z,68.62
2019-03-31T06:32:36.086Z,68.38
2019-03-31T06:35:06.352Z,68.53
2019-03-31T06:37:35.693Z,69.26
2019-03-31T06:40:06.065Z,69.77
2019-03-31T06:42:35.657Z,69.74
2019-03-31T06:45:06.626Z,69.95
2019-03-31T06:47:35.959Z,69.90
2019-03-31T06:50:07.399Z,70.53
2019-03-31T06:52:36.829Z,70.70
2019-03-31T06:55:07.579Z,70.55
2019-03-31T06:57:36.910Z,71.09
2019-03-31T07:00:09.422Z,70.66
2019-03-31T07:02:38.809Z,70.71
2019-03-31T07:05:08.873Z,70.62
2019-03-31T07:07:38.204Z,70.61
2019-03-31T07:10:08.075Z,70.32
2019-03-31T07:12:37.581Z,70.69
2019-03-31T07:15:08.345Z,70.70
2019-03-31T07:17:37.681Z,71.05
2019-03-31T07:20:09.213Z,71.47
2019-03-31T07:22:38.614Z,71.67
2019-03-31T07:25:09.857Z,71.68
2019-03-31T07:27:39.832Z,71.38
2019-03-31T07:30:15.138Z,71.70
2019-03-31T07:32:44.469Z,71.70
2019-03-31T07:35:18.591Z,72.00
2019-03-31T07:37:47.386Z,72.22
2019-03-31T07:40:21.940Z,72.89
2019-03-31T07:42:52.238Z,72.93
2019-03-31T07:45:21.633Z,72.99
2019-03-31T07:47:50.989Z,73.20
2019-03-31T07:50:20.761Z,73.18
2019-03-31T07:52:50.125Z,73.29
2019-03-31T07:55:20.588Z,73.06
2019-03-31T07:57:49.942Z,73.67
2019-03-31T08:00:23.717Z,74.07
2019-03-31T08:02:52.311Z,74.35
2019-03-31T08:05:32.394Z,74.47
2019-03-31T08:07:52.905Z,74.34
2019-03-31T08:10:22.429Z,74.45
2019-03-31T08:12:51.800Z,74.54
2019-03-31T08:15:21.131Z,74.69
2019-03-31T08:17:50.546Z,74.46
2019-03-31T08:20:20.202Z,74.73
2019-03-31T08:22:50.509Z,74.36
2019-03-31T08:25:19.832Z,74.53
2019-03-31T08:27:49.162Z,73.91
2019-03-31T08:30:19.346Z,73.67
2019-03-31T08:32:49.656Z,73.96
2019-03-31T08:35:19.126Z,73.98
2019-03-31T08:37:48.463Z,73.42
2019-03-31T08:40:18.255Z,73.18
2019-03-31T08:42:47.590Z,72.67
2019-03-31T08:45:17.760Z,72.85
2019-03-31T08:47:47.149Z,72.73
2019-03-31T08:50:17.951Z,73.20
2019-03-31T08:52:47.286Z,72.31
2019-03-31T08:55:16.618Z,72.38
2019-03-31T08:57:45.952Z,71.70
2019-03-31T09:00:18.499Z,71.58
2019-03-31T09:02:47.859Z,71.28
2019-03-31T09:05:17.254Z,71.54
2019-03-31T09:07:46.592Z,71.07
2019-03-31T09:10:16.464Z,70.90
2019-03-31T09:12:48.526Z,70.88
2019-03-31T09:15:16.908Z,70.58
2019-03-31T09:17:46.244Z,70.68
2019-03-31T09:20:16.113Z,69.91
2019-03-31T09:22:45.728Z,70.11
2019-03-31T09:25:15.843Z,70.44
2019-03-31T09:27:45.188Z,70.17
2019-03-31T09:30:15.012Z,70.10
2019-03-31T09:32:44.348Z,70.02
2019-03-31T09:35:13.970Z,69.70
2019-03-31T09:37:43.302Z,68.75
2019-03-31T09:40:14.382Z,68.66
2019-03-31T09:42:43.724Z,67.87
2019-03-31T09:45:14.371Z,68.50
2019-03-31T09:47:43.963Z,68.11
2019-03-31T09:50:17.279Z,67.41
2019-03-31T09:52:45.871Z,67.29
2019-03-31T09:55:15.550Z,67.41
2019-03-31T09:57:44.890Z,67.41
2019-03-31T10:00:29.427Z,65.62
2019-03-31T10:03:01.159Z,64.91
2019-03-31T10:05:29.884Z,65.08
2019-03-31T10:07:59.386Z,64.67
2019-03-31T10:10:32.741Z,64.10
2019-03-31T10:13:02.079Z,62.77
2019-03-31T10:15:31.779Z,63.35
2019-03-31T10:18:01.115Z,62.95
2019-03-31T10:20:31.652Z,63.59
2019-03-31T10:23:01.263Z,62.53
2019-03-31T10:25:30.602Z,62.15
2019-03-31T10:28:00.225Z,61.83
2019-03-31T10:30:34.309Z,61.71
2019-03-31T10:33:04.579Z,61.95
2019-03-31T10:35:34.307Z,61.42
2019-03-31T10:38:04.998Z,60.95
2019-03-31T10:40:34.482Z,60.41
2019-03-31T10:43:04.530Z,58.36
2019-03-31T10:45:34.395Z,58.69
2019-03-31T10:48:04.011Z,57.59
2019-03-31T10:50:33.669Z,57.93
2019-03-31T10:53:03.010Z,57.81
2019-03-31T10:55:32.344Z,57.43
2019-03-31T10:58:02.752Z,55.64
2019-03-31T11:00:37.192Z,55.86
2019-03-31T11:03:08.173Z,55.47
2019-03-31T11:05:38.753Z,55.34
2019-03-31T11:08:08.083Z,54.89
2019-03-31T11:10:37.495Z,54.75
2019-03-31T11:13:07.266Z,54.00
2019-03-31T11:15:36.606Z,53.09
2019-03-31T11:18:05.942Z,51.26
2019-03-31T11:20:35.285Z,49.87
2019-03-31T11:23:09.297Z,49.91
2019-03-31T11:25:38.640Z,49.32
2019-03-31T11:28:08.441Z,47.61
2019-03-31T11:30:38.120Z,46.54
2019-03-31T11:33:07.961Z,46.82
2019-03-31T11:35:37.253Z,45.38
2019-03-31T11:38:06.589Z,43.29
2019-03-31T11:40:35.939Z,44.35
2019-03-31T11:43:05.269Z,43.86
2019-03-31T11:45:34.612Z,43.61
2019-03-31T11:48:04.024Z,43.41
2019-03-31T11:50:33.366Z,42.86
2019-03-31T11:53:02.699Z,41.61
2019-03-31T11:55:32.040Z,41.48
2019-03-31T11:58:01.375Z,41.39
2019-03-31T12:00:32.691Z,41.28
2019-03-31T12:03:02.102Z,41.16
2019-03-31T12:05:31.439Z,40.74
2019-03-31T12:08:00.770Z,39.33
2019-03-31T12:10:30.107Z,39.70
2019-03-31T12:12:59.436Z,38.75
2019-03-31T12:15:28.772Z,37.35
2019-03-31T12:17:58.108Z,36.58
2019-03-31T12:20:27.509Z,35.47
2019-03-31T12:22:56.864Z,35.20
2019-03-31T12:25:26.214Z,34.10
2019-03-31T12:27:55.543Z,33.22
2019-03-31T12:30:28.752Z,32.56
2019-03-31T12:32:58.853Z,31.93
2019-03-31T12:35:28.189Z,31.70
2019-03-31T12:37:57.700Z,31.95
2019-03-31T12:40:34.860Z,30.41
2019-03-31T12:43:04.933Z,30.52
2019-03-31T12:45:34.375Z,30.65
2019-03-31T12:48:03.701Z,29.57
2019-03-31T12:50:33.358Z,29.42
2019-03-31T12:53:02.695Z,28.34
2019-03-31T12:55:32.021Z,27.86
2019-03-31T12:58:01.351Z,27.82
2019-03-31T13:00:31.820Z,27.76
2019-03-31T13:03:01.174Z,28.35
2019-03-31T13:05:30.497Z,28.09
2019-03-31T13:07:59.824Z,27.02
2019-03-31T13:10:29.168Z,26.03
2019-03-31T13:12:58.494Z,26.56
2019-03-31T13:15:28.831Z,26.68
2019-03-31T13:17:58.126Z,26.93
2019-03-31T13:20:27.455Z,26.34
2019-03-31T13:22:56.787Z,25.97
2019-03-31T13:25:26.441Z,26.99
2019-03-31T13:27:55.843Z,26.22
2019-03-31T13:30:25.457Z,25.92
2019-03-31T13:32:54.794Z,25.13
2019-03-31T13:35:24.129Z,25.84
2019-03-31T13:37:53.550Z,24.90
2019-03-31T13:40:23.173Z,25.00
2019-03-31T13:42:52.509Z,24.92
2019-03-31T13:45:21.837Z,24.53
2019-03-31T13:47:51.165Z,24.02
2019-03-31T13:50:20.494Z,23.85
2019-03-31T13:52:49.818Z,24.37
2019-03-31T13:55:19.163Z,23.96
2019-03-31T13:57:49.773Z,23.45
2019-03-31T14:00:25.513Z,23.04
2019-03-31T14:02:53.360Z,22.84
2019-03-31T14:05:22.695Z,23.17
2019-03-31T14:07:52.022Z,23.17
2019-03-31T14:10:21.357Z,23.00
2019-03-31T14:12:50.692Z,22.83
2019-03-31T14:15:20.020Z,22.25
2019-03-31T14:17:49.583Z,22.62
2019-03-31T14:20:18.909Z,22.55
2019-03-31T14:22:48.242Z,22.66
2019-03-31T14:25:17.633Z,23.00
2019-03-31T14:27:48.041Z,23.18
2019-03-31T14:30:17.735Z,23.41
2019-03-31T14:32:47.066Z,23.27
2019-03-31T14:35:16.417Z,23.72
2019-03-31T14:37:46.032Z,24.10
2019-03-31T14:40:15.424Z,24.50
2019-03-31T14:42:44.766Z,24.53
2019-03-31T14:45:31.519Z,24.70
2019-03-31T14:48:01.526Z,25.01
2019-03-31T14:50:33.001Z,25.38
2019-03-31T14:53:02.714Z,30.84
2019-03-31T14:55:32.033Z,30.00
2019-03-31T14:58:01.620Z,29.54
2019-03-31T15:00:31.234Z,27.69
2019-03-31T15:03:00.575Z,26.18
2019-03-31T15:05:29.907Z,26.34
2019-03-31T15:07:59.543Z,26.66
2019-03-31T15:10:28.871Z,26.51
2019-03-31T15:12:58.204Z,27.12
2019-03-31T15:15:27.538Z,27.19
2019-03-31T15:17:56.959Z,27.22
2019-03-31T15:20:26.290Z,27.76
2019-03-31T15:22:55.622Z,27.75
2019-03-31T15:25:24.958Z,28.05
2019-03-31T15:27:54.578Z,28.39
2019-03-31T15:30:23.899Z,28.68
2019-03-31T15:32:53.475Z,28.42
2019-03-31T15:35:23.033Z,28.73
2019-03-31T15:37:52.594Z,29.20
2019-03-31T15:40:21.992Z,29.24
2019-03-31T15:42:51.327Z,29.49
2019-03-31T15:45:20.656Z,30.04
2019-03-31T15:47:49.983Z,30.33
2019-03-31T15:50:19.552Z,30.82
2019-03-31T15:52:48.941Z,31.09
2019-03-31T15:55:18.274Z,31.50
2019-03-31T15:57:48.800Z,31.92
2019-03-31T16:00:18.570Z,32.64
2019-03-31T16:02:47.893Z,32.81
2019-03-31T16:05:17.223Z,32.78
2019-03-31T16:07:47.498Z,32.61
2019-03-31T16:10:16.988Z,34.98
2019-03-31T16:12:46.308Z,40.26
2019-03-31T16:15:16.037Z,40.52
2019-03-31T16:17:45.365Z,39.60
2019-03-31T16:20:14.929Z,39.07
2019-03-31T16:22:44.252Z,39.66
2019-03-31T16:25:24.130Z,35.49
2019-03-31T16:27:53.459Z,33.72
2019-03-31T16:30:23.759Z,33.70
2019-03-31T16:32:53.083Z,33.63
2019-03-31T16:35:22.414Z,33.52
2019-03-31T16:37:51.804Z,34.29
2019-03-31T16:40:21.135Z,34.64
2019-03-31T16:42:50.460Z,35.03
2019-03-31T16:45:19.795Z,39.97
2019-03-31T16:47:49.116Z,42.91
2019-03-31T16:50:18.689Z,42.65
2019-03-31T16:52:48.022Z,38.14
2019-03-31T16:55:17.426Z,36.72
2019-03-31T16:57:46.748Z,42.73
2019-03-31T17:00:16.220Z,42.39
2019-03-31T17:02:45.544Z,42.92
2019-03-31T17:05:21.810Z,42.43
2019-03-31T17:07:46.927Z,43.01
2019-03-31T17:10:16.404Z,39.48
2019-03-31T17:12:45.729Z,36.61
2019-03-31T17:15:15.200Z,37.31
2019-03-31T17:17:44.537Z,37.96
2019-03-31T17:20:14.103Z,38.79
2019-03-31T17:22:43.426Z,39.46
2019-03-31T17:25:12.758Z,39.92
2019-03-31T17:27:42.080Z,40.34
2019-03-31T17:30:11.550Z,40.41
2019-03-31T17:32:40.882Z,40.59
2019-03-31T17:35:10.214Z,41.04
2019-03-31T17:37:39.563Z,41.55
2019-03-31T17:40:09.064Z,42.36
2019-03-31T17:42:38.390Z,42.57
2019-03-31T17:45:08.271Z,43.12
2019-03-31T17:47:37.670Z,43.26
2019-03-31T17:50:07.709Z,43.49
2019-03-31T17:52:38.008Z,43.79
2019-03-31T17:55:07.607Z,44.02
2019-03-31T17:57:37.003Z,44.47
2019-03-31T18:00:09.750Z,44.32
2019-03-31T18:02:39.079Z,43.85
2019-03-31T18:05:09.360Z,44.11
2019-03-31T18:07:38.691Z,44.58
2019-03-31T18:10:20.098Z,44.78
2019-03-31T18:12:39.376Z,45.06
2019-03-31T18:15:09.052Z,45.32
2019-03-31T18:17:38.613Z,44.85
2019-03-31T18:20:08.327Z,44.93
2019-03-31T18:22:37.721Z,45.06
2019-03-31T18:25:08.237Z,45.46
2019-03-31T18:27:37.569Z,45.86
2019-03-31T18:30:08.179Z,46.08
2019-03-31T18:32:37.576Z,46.32
2019-03-31T18:35:07.676Z,46.37
2019-03-31T18:37:37.106Z,46.54
2019-03-31T18:40:08.573Z,46.27
2019-03-31T18:42:37.945Z,46.79
2019-03-31T18:45:07.877Z,47.04
2019-03-31T18:47:37.212Z,46.66
2019-03-31T18:50:08.262Z,46.73
2019-03-31T18:52:37.603Z,46.53
2019-03-31T18:55:11.854Z,46.60
2019-03-31T18:57:43.081Z,46.34
2019-03-31T19:00:26.408Z,45.85
2019-03-31T19:03:15.478Z,45.78
2019-03-31T19:05:47.419Z,45.39
2019-03-31T19:08:34.373Z,45.51
2019-03-31T19:11:05.465Z,45.71
2019-03-31T19:13:55.709Z,45.71
2019-03-31T19:16:28.304Z,45.71
2019-03-31T19:18:59.273Z,45.34
2019-03-31T19:21:36.262Z,45.32
2019-03-31T19:24:07.243Z,45.69
2019-03-31T19:26:48.092Z,45.69
2019-03-31T19:29:25.468Z,45.65
2019-03-31T19:31:59.244Z,45.65
2019-03-31T19:34:32.158Z,45.40
2019-03-31T19:37:03.339Z,44.95
2019-03-31T19:39:53.604Z,44.99
2019-03-31T19:42:41.362Z,45.10
2019-03-31T19:45:15.084Z,44.88
2019-03-31T19:47:51.482Z,44.87
2019-03-31T19:50:22.321Z,44.14
2019-03-31T19:52:59.070Z,44.38
2019-03-31T19:55:35.835Z,44.42
2019-03-31T19:58:12.256Z,43.96
2019-03-31T20:00:52.395Z,49.43
2019-03-31T20:03:32.043Z,56.32
2019-03-31T20:06:05.933Z,55.98
2019-03-31T20:08:48.621Z,42.27
2019-03-31T20:11:19.591Z,42.47
2019-03-31T20:14:02.794Z,42.91
2019-03-31T20:16:52.231Z,43.30
2019-03-31T20:19:25.850Z,43.77
2019-03-31T20:22:05.764Z,44.14
2019-03-31T20:24:45.760Z,43.99
2019-03-31T20:27:16.729Z,44.38
2019-03-31T20:29:50.426Z,44.52
2019-03-31T20:32:37.141Z,44.77
2019-03-31T20:35:08.808Z,44.91
2019-03-31T20:37:42.836Z,44.95
2019-03-31T20:40:19.721Z,45.04
2019-03-31T20:42:50.894Z,45.44
2019-03-31T20:45:21.191Z,45.50
2019-03-31T20:47:51.619Z,45.59
2019-03-31T20:50:20.940Z,45.91
2019-03-31T20:52:50.335Z,46.35
2019-03-31T20:55:20.730Z,46.72
2019-03-31T20:57:50.054Z,47.65
2019-03-31T21:00:19.519Z,48.55
2019-03-31T21:02:49.113Z,48.42
2019-03-31T21:05:18.438Z,48.25
2019-03-31T21:07:47.756Z,48.16
2019-03-31T21:10:17.144Z,48.14
2019-03-31T21:12:47.365Z,48.53
2019-03-31T21:15:16.693Z,48.71
2019-03-31T21:17:46.014Z,48.63
2019-03-31T21:20:15.583Z,48.58
2019-03-31T21:22:44.901Z,49.12
2019-03-31T21:25:14.235Z,49.64
2019-03-31T21:27:43.675Z,50.08
2019-03-31T21:30:13.151Z,50.22
2019-03-31T21:32:42.717Z,50.04
2019-03-31T21:35:12.120Z,50.26
2019-03-31T21:37:41.451Z,50.54
2019-03-31T21:40:10.912Z,50.55
2019-03-31T21:42:40.232Z,50.16
2019-03-31T21:45:09.675Z,50.15
2019-03-31T21:47:39.220Z,50.34
2019-03-31T21:50:08.790Z,50.33
2019-03-31T21:52:38.406Z,50.39
2019-03-31T21:55:08.274Z,50.55
2019-03-31T21:57:37.598Z,50.58
2019-03-31T22:00:09.906Z,50.64
2019-03-31T22:02:40.855Z,50.63
2019-03-31T22:05:10.592Z,50.79
2019-03-31T22:07:39.917Z,51.17
2019-03-31T22:10:09.377Z,51.30
2019-03-31T22:12:38.712Z,50.82
2019-03-31T22:15:08.490Z,50.78
2019-03-31T22:17:37.812Z,50.43
2019-03-31T22:20:07.991Z,50.58
2019-03-31T22:22:37.345Z,50.29
2019-03-31T22:25:07.309Z,50.02
2019-03-31T22:27:36.773Z,49.77
2019-03-31T22:30:07.650Z,49.58
2019-03-31T22:32:36.976Z,49.22
2019-03-31T22:35:07.505Z,49.09
2019-03-31T22:37:36.913Z,48.83
2019-03-31T22:40:06.901Z,48.74
2019-03-31T22:42:36.934Z,48.76
2019-03-31T22:45:06.697Z,48.84
2019-03-31T22:47:36.030Z,48.45
2019-03-31T22:50:06.177Z,48.62
2019-03-31T22:52:35.774Z,48.41
2019-03-31T22:55:06.836Z,48.91
2019-03-31T22:57:36.160Z,49.34
2019-03-31T23:00:08.160Z,49.56
2019-03-31T23:02:39.105Z,49.76
2019-03-31T23:05:10.339Z,49.78
2019-03-31T23:07:39.677Z,49.66
2019-03-31T23:10:09.500Z,50.22
2019-03-31T23:12:38.829Z,50.32
2019-03-31T23:15:08.488Z,50.64
2019-03-31T23:17:37.828Z,50.28
2019-03-31T23:20:07.375Z,50.45
2019-03-31T23:22:36.734Z,50.84
2019-03-31T23:25:06.693Z,50.58
2019-03-31T23:27:36.039Z,50.79
2019-03-31T23:30:08.675Z,51.09
2019-03-31T23:32:37.998Z,51.29
2019-03-31T23:35:07.967Z,51.21
2019-03-31T23:37:37.304Z,51.67
2019-03-31T23:40:06.757Z,51.84
2019-03-31T23:42:36.082Z,52.13
2019-03-31T23:45:07.015Z,52.25
2019-03-31T23:47:36.345Z,52.16
2019-03-31T23:50:06.712Z,51.92
2019-03-31T23:52:36.082Z,52.25
2019-03-31T23:55:06.186Z,52.23
2019-03-31T23:57:42.407Z,52.55
